Time;durP1;ratioP1;P1;durP2;ratioP2;P2;SDS_P1;SDS_P2;PMS_P1;PMS_P2;Temp;Humidity;BMP_temperature;BMP_pressure;BME280_temperature;BME280_humidity;BME280_pressure;Samples;Min_cycle;Max_cycle;Signal;HPM_P1;HPM_P2
2022/04/07 00:01:14;;;;;;;18.33;10.13;;;8.90;99.90;;;;;;4455716;32;20190;-68
2022/04/07 00:03:41;;;;;;;15.73;9.70;;;8.90;99.90;;;;;;4453921;32;20181;-68
2022/04/07 00:06:11;;;;;;;18.00;9.80;;;8.90;99.90;;;;;;4455529;32;20439;-68
2022/04/07 00:08:41;;;;;;;16.33;10.23;;;8.90;99.90;;;;;;4454273;32;20227;-68
2022/04/07 00:11:09;;;;;;;16.50;9.87;;;8.90;99.90;;;;;;4455393;32;20202;-68
2022/04/07 00:13:36;;;;;;;16.27;9.43;;;9.00;99.90;;;;;;4453838;32;20443;-68
2022/04/07 00:16:08;;;;;;;16.53;9.80;;;9.00;99.90;;;;;;4453785;32;20170;-67
2022/04/07 00:18:36;;;;;;;19.07;9.87;;;9.00;99.90;;;;;;4454902;32;20146;-67
2022/04/07 00:21:06;;;;;;;15.70;9.30;;;9.00;99.90;;;;;;4456102;32;20163;-68
2022/04/07 00:23:34;;;;;;;17.10;10.00;;;9.00;99.90;;;;;;4453371;32;20177;-67
2022/04/07 00:26:00;;;;;;;17.13;9.37;;;9.00;99.90;;;;;;4453996;32;20622;-68
2022/04/07 00:28:27;;;;;;;16.97;9.87;;;9.00;99.90;;;;;;4454198;32;20174;-67
2022/04/07 00:30:54;;;;;;;16.10;9.73;;;9.00;99.90;;;;;;4453661;32;20567;-68
2022/04/07 00:33:21;;;;;;;17.80;9.50;;;9.00;99.90;;;;;;4454352;32;20527;-68
2022/04/07 00:35:48;;;;;;;15.80;9.50;;;9.00;99.90;;;;;;4453945;32;20229;-68
2022/04/07 00:38:15;;;;;;;16.27;9.27;;;9.00;99.90;;;;;;4454148;32;20533;-67
2022/04/07 00:40:42;;;;;;;16.57;9.27;;;9.00;99.90;;;;;;4453581;32;20201;-68
2022/04/07 00:43:28;;;;;;;17.07;9.93;;;9.00;99.90;;;;;;4454967;32;20414;-68
2022/04/07 00:45:55;;;;;;;16.03;9.90;;;9.00;99.90;;;;;;4454754;32;20421;-68
2022/04/07 00:48:22;;;;;;;17.50;9.97;;;8.90;99.90;;;;;;4455179;32;20183;-68
2022/04/07 00:50:49;;;;;;;18.67;9.47;;;8.90;99.90;;;;;;4454894;32;20431;-68
2022/04/07 00:53:17;;;;;;;15.43;9.47;;;8.90;99.90;;;;;;4454739;32;20515;-68
2022/04/07 00:55:44;;;;;;;18.40;10.17;;;8.90;99.90;;;;;;4454120;32;20170;-68
2022/04/07 00:58:11;;;;;;;16.53;10.13;;;8.90;99.90;;;;;;4453108;32;20178;-68
2022/04/07 01:00:38;;;;;;;15.97;9.87;;;8.90;99.90;;;;;;4453827;32;20199;-68
2022/04/07 01:03:05;;;;;;;18.63;10.23;;;8.90;99.90;;;;;;4454378;32;20254;-67
2022/04/07 01:05:32;;;;;;;16.10;10.23;;;8.90;99.90;;;;;;4454918;32;20408;-68
2022/04/07 01:07:59;;;;;;;20.00;10.47;;;8.90;99.90;;;;;;4454432;32;20154;-68
2022/04/07 01:10:28;;;;;;;17.17;10.30;;;8.90;99.90;;;;;;4453269;32;20197;-68
2022/04/07 01:12:55;;;;;;;17.90;9.77;;;9.00;99.90;;;;;;4455809;32;20148;-68
2022/04/07 01:15:22;;;;;;;18.33;9.97;;;9.00;99.90;;;;;;4453358;32;20434;-68
2022/04/07 01:17:49;;;;;;;19.70;11.00;;;9.00;99.90;;;;;;4454752;32;20204;-68
2022/04/07 01:20:16;;;;;;;16.40;10.13;;;8.90;99.90;;;;;;4452864;32;20213;-68
2022/04/07 01:22:46;;;;;;;17.83;9.97;;;8.90;99.90;;;;;;4455004;32;20138;-68
2022/04/07 01:25:13;;;;;;;21.10;10.60;;;8.90;99.90;;;;;;4453207;32;20170;-68
2022/04/07 01:27:40;;;;;;;17.97;10.13;;;8.90;99.90;;;;;;4452820;32;20207;-68
2022/04/07 01:30:08;;;;;;;16.67;9.77;;;8.90;99.90;;;;;;4453215;32;20182;-68
2022/04/07 01:32:43;;;;;;;16.77;10.37;;;8.90;99.90;;;;;;4454961;32;20229;-68
2022/04/07 01:35:12;;;;;;;17.23;9.87;;;8.90;99.90;;;;;;4453737;32;20457;-68
2022/04/07 01:37:44;;;;;;;16.77;9.97;;;8.90;99.90;;;;;;4440146;32;20220;-68
2022/04/07 01:40:15;;;;;;;18.60;10.53;;;8.90;99.90;;;;;;4456075;32;20383;-68
2022/04/07 01:42:45;;;;;;;17.33;9.93;;;8.90;99.90;;;;;;4455658;32;20352;-68
2022/04/07 01:45:12;;;;;;;17.47;10.20;;;8.90;99.90;;;;;;4454799;32;20171;-68
2022/04/07 01:47:43;;;;;;;16.30;9.63;;;9.00;99.90;;;;;;4453725;32;20185;-68
2022/04/07 01:50:11;;;;;;;19.10;10.47;;;9.00;99.90;;;;;;4452733;32;20193;-68
2022/04/07 01:52:41;;;;;;;19.10;10.13;;;9.00;99.90;;;;;;4452893;32;20203;-68
2022/04/07 01:55:08;;;;;;;16.33;10.00;;;9.00;99.90;;;;;;4454553;32;20208;-68
2022/04/07 01:57:35;;;;;;;17.23;10.00;;;9.00;99.90;;;;;;4454080;32;20456;-68
2022/04/07 02:00:06;;;;;;;18.80;10.20;;;9.00;99.90;;;;;;4453085;32;20174;-68
2022/04/07 02:02:33;;;;;;;17.73;10.30;;;9.00;99.90;;;;;;4454744;32;20177;-68
2022/04/07 02:05:08;;;;;;;22.63;10.80;;;9.00;99.90;;;;;;4454397;32;20204;-68
2022/04/07 02:07:37;;;;;;;18.50;10.23;;;9.00;99.90;;;;;;4454575;32;20468;-68
2022/04/07 02:10:05;;;;;;;18.40;10.07;;;9.00;99.90;;;;;;4452953;32;20190;-68
2022/04/07 02:12:35;;;;;;;19.00;10.53;;;9.00;99.90;;;;;;4457202;32;20166;-68
2022/04/07 02:15:02;;;;;;;19.97;11.30;;;9.00;99.90;;;;;;4443626;32;20428;-68
2022/04/07 02:17:29;;;;;;;19.27;10.83;;;9.00;99.90;;;;;;4457046;32;20438;-68
2022/04/07 02:19:58;;;;;;;18.60;11.13;;;8.90;99.90;;;;;;4458256;32;20154;-68
2022/04/07 02:22:28;;;;;;;19.77;11.40;;;8.90;99.90;;;;;;4455469;32;20236;-68
2022/04/07 02:24:56;;;;;;;21.17;11.00;;;8.90;99.90;;;;;;4457728;32;20146;-68
2022/04/07 02:27:24;;;;;;;18.73;10.83;;;8.90;99.90;;;;;;4457521;32;20231;-68
2022/04/07 02:29:51;;;;;;;17.50;11.10;;;9.00;99.90;;;;;;4455567;32;20173;-69
2022/04/07 02:32:19;;;;;;;17.23;10.70;;;9.00;99.90;;;;;;4456675;32;20385;-68
2022/04/07 02:34:46;;;;;;;18.93;11.10;;;9.00;99.90;;;;;;4455116;32;20536;-68
2022/04/07 02:37:13;;;;;;;22.60;11.10;;;9.00;99.90;;;;;;4455680;32;20508;-68
2022/04/07 02:39:40;;;;;;;20.23;12.07;;;9.00;99.90;;;;;;4457693;32;20217;-68
2022/04/07 02:42:07;;;;;;;18.30;11.23;;;8.90;99.90;;;;;;4456547;32;20170;-68
2022/04/07 02:44:34;;;;;;;21.30;10.90;;;9.00;99.90;;;;;;4455298;32;20250;-68
2022/04/07 02:47:01;;;;;;;19.40;11.20;;;8.90;99.90;;;;;;4456152;32;20453;-68
2022/04/07 02:49:28;;;;;;;19.37;11.03;;;8.90;99.90;;;;;;4455097;32;20426;-68
2022/04/07 02:51:55;;;;;;;19.70;11.47;;;8.90;99.90;;;;;;4458215;32;20413;-68
2022/04/07 02:54:22;;;;;;;20.90;10.80;;;8.90;99.90;;;;;;4456697;32;20165;-68
2022/04/07 02:56:49;;;;;;;19.47;11.23;;;8.90;99.90;;;;;;4455282;32;20185;-68
2022/04/07 02:59:16;;;;;;;21.20;10.90;;;8.90;99.90;;;;;;4455143;32;20516;-68
2022/04/07 03:01:43;;;;;;;19.43;11.13;;;8.90;99.90;;;;;;4456470;32;20425;-68
2022/04/07 03:04:11;;;;;;;18.93;11.20;;;8.90;99.90;;;;;;4455146;32;20569;-68
2022/04/07 03:06:38;;;;;;;16.43;10.73;;;8.80;99.90;;;;;;4457432;32;20403;-68
2022/04/07 03:09:05;;;;;;;18.43;10.77;;;8.80;99.90;;;;;;4443896;32;20547;-68
2022/04/07 03:11:32;;;;;;;21.80;11.83;;;8.80;99.90;;;;;;4457784;32;20169;-68
2022/04/07 03:13:59;;;;;;;18.47;10.90;;;8.90;99.90;;;;;;4442113;32;20204;-68
2022/04/07 03:16:26;;;;;;;18.77;10.57;;;8.80;99.90;;;;;;4454497;32;20591;-68
2022/04/07 03:18:52;;;;;;;19.93;11.73;;;8.80;99.90;;;;;;4455227;32;20182;-68
2022/04/07 03:21:18;;;;;;;21.67;11.60;;;8.80;99.90;;;;;;4456171;32;20188;-68
2022/04/07 03:23:45;;;;;;;17.30;10.33;;;8.80;99.90;;;;;;4456931;32;20182;-68
2022/04/07 03:26:12;;;;;;;17.50;10.80;;;8.80;99.90;;;;;;4456511;32;20181;-70
2022/04/07 03:28:39;;;;;;;20.80;11.23;;;8.70;99.90;;;;;;4455588;32;20174;-68
2022/04/07 03:31:06;;;;;;;22.50;11.13;;;8.70;99.90;;;;;;4455071;32;20185;-68
2022/04/07 03:33:33;;;;;;;19.53;11.17;;;8.70;99.90;;;;;;4455658;32;20230;-68
2022/04/07 03:36:00;;;;;;;19.40;11.50;;;8.70;99.90;;;;;;4454802;32;20243;-68
2022/04/07 03:38:27;;;;;;;20.43;11.47;;;8.70;99.90;;;;;;4454407;32;20243;-68
2022/04/07 03:40:53;;;;;;;19.37;11.17;;;8.60;99.90;;;;;;4454461;32;20463;-68
2022/04/07 03:43:21;;;;;;;19.60;11.40;;;8.60;99.90;;;;;;4454514;32;20254;-69
2022/04/07 03:45:49;;;;;;;19.60;10.73;;;8.60;99.90;;;;;;4457077;32;20191;-68
2022/04/07 03:48:16;;;;;;;19.00;10.73;;;8.60;99.90;;;;;;4454579;32;20265;-68
2022/04/07 03:50:42;;;;;;;18.30;11.43;;;8.50;99.90;;;;;;4453925;32;20539;-68
2022/04/07 03:53:09;;;;;;;19.00;11.07;;;8.50;99.90;;;;;;4454614;32;20451;-68
2022/04/07 03:55:36;;;;;;;18.30;11.50;;;8.50;99.90;;;;;;4454573;32;20434;-68
2022/04/07 03:58:03;;;;;;;17.67;11.30;;;8.40;99.90;;;;;;4454637;32;20488;-68
2022/04/07 04:00:30;;;;;;;17.60;10.57;;;8.40;99.90;;;;;;4441820;32;20195;-68
2022/04/07 04:02:57;;;;;;;20.97;11.63;;;8.40;99.90;;;;;;4453670;32;20177;-68
2022/04/07 04:05:25;;;;;;;20.23;11.77;;;8.40;99.90;;;;;;4455454;32;20475;-68
2022/04/07 04:07:52;;;;;;;19.10;11.27;;;8.40;99.90;;;;;;4441395;32;20182;-68
2022/04/07 04:10:19;;;;;;;21.27;10.80;;;8.40;99.90;;;;;;4457087;32;20182;-68
2022/04/07 04:12:46;;;;;;;20.40;11.33;;;8.40;99.90;;;;;;4456888;32;20564;-68
2022/04/07 04:15:13;;;;;;;17.50;10.30;;;8.40;99.90;;;;;;4455431;32;20146;-68
2022/04/07 04:17:40;;;;;;;20.23;11.13;;;8.40;99.90;;;;;;4453919;32;20209;-68
2022/04/07 04:20:07;;;;;;;19.03;10.83;;;8.40;99.90;;;;;;4442717;32;20185;-68
2022/04/07 04:22:34;;;;;;;17.87;10.93;;;8.40;99.90;;;;;;4455847;32;20180;-68
2022/04/07 04:25:01;;;;;;;20.07;10.77;;;8.40;99.90;;;;;;4453868;32;20450;-68
2022/04/07 04:27:28;;;;;;;18.30;10.43;;;8.40;99.90;;;;;;4453743;32;20486;-69
2022/04/07 04:29:56;;;;;;;22.07;11.23;;;8.40;99.90;;;;;;4453410;32;20194;-68
2022/04/07 04:32:22;;;;;;;15.97;10.33;;;8.40;99.90;;;;;;4454484;32;20188;-68
2022/04/07 04:34:49;;;;;;;17.37;10.73;;;8.40;99.90;;;;;;4454354;32;20227;-68
2022/04/07 04:37:16;;;;;;;20.00;10.83;;;8.40;99.90;;;;;;4454299;32;20268;-68
2022/04/07 04:39:43;;;;;;;17.97;10.97;;;8.40;99.90;;;;;;4453790;32;20215;-68
2022/04/07 04:42:10;;;;;;;18.27;10.77;;;8.40;99.90;;;;;;4454811;32;20238;-68
2022/04/07 04:44:37;;;;;;;18.93;11.03;;;8.40;99.90;;;;;;4453978;32;20435;-68
2022/04/07 04:47:04;;;;;;;18.20;10.67;;;8.40;99.90;;;;;;4454636;32;20182;-68
2022/04/07 04:49:31;;;;;;;18.50;10.90;;;8.50;99.90;;;;;;4441432;32;20253;-68
2022/04/07 04:51:58;;;;;;;17.13;10.40;;;8.50;99.90;;;;;;4453320;32;20406;-68
2022/04/07 04:54:25;;;;;;;17.60;10.53;;;8.50;99.90;;;;;;4453766;32;20194;-67
2022/04/07 04:56:52;;;;;;;19.67;10.60;;;8.50;99.90;;;;;;4453462;32;20200;-68
2022/04/07 04:59:19;;;;;;;17.43;10.83;;;8.50;99.90;;;;;;4454660;32;20470;-67
2022/04/07 05:01:46;;;;;;;22.13;11.70;;;8.60;99.90;;;;;;4453210;32;20249;-68
2022/04/07 05:04:13;;;;;;;19.10;10.90;;;8.60;99.90;;;;;;4453670;32;20170;-68
2022/04/07 05:06:40;;;;;;;18.90;10.97;;;8.60;99.90;;;;;;4452655;32;20206;-68
2022/04/07 05:09:07;;;;;;;19.63;10.87;;;8.70;99.90;;;;;;4454745;32;20188;-68
2022/04/07 05:11:34;;;;;;;16.73;10.27;;;8.70;99.90;;;;;;4453060;32;20184;-69
2022/04/07 05:14:02;;;;;;;15.47;10.10;;;8.70;99.90;;;;;;4452380;32;20170;-68
2022/04/07 05:16:29;;;;;;;19.00;10.63;;;8.70;99.90;;;;;;4454231;32;20206;-68
2022/04/07 05:18:56;;;;;;;18.23;10.47;;;8.70;99.90;;;;;;4426857;32;20522;-68
2022/04/07 05:21:23;;;;;;;16.40;10.27;;;8.70;99.90;;;;;;4453850;32;20193;-68
2022/04/07 05:23:49;;;;;;;16.07;10.10;;;8.70;99.90;;;;;;4452768;32;20189;-68
2022/04/07 05:26:16;;;;;;;16.37;10.30;;;8.70;99.90;;;;;;4453297;32;20209;-68
2022/04/07 05:28:43;;;;;;;17.40;10.57;;;8.80;99.90;;;;;;4454212;32;20378;-68
2022/04/07 05:31:10;;;;;;;18.47;10.40;;;8.70;99.90;;;;;;4453913;32;20174;-68
2022/04/07 05:33:38;;;;;;;17.73;9.87;;;8.80;99.90;;;;;;4454913;32;20146;-68
2022/04/07 05:36:05;;;;;;;18.53;10.07;;;8.80;99.90;;;;;;4453926;32;20157;-68
2022/04/07 05:38:32;;;;;;;16.93;9.90;;;8.80;99.90;;;;;;4452481;32;20261;-68
2022/04/07 05:40:59;;;;;;;18.23;10.23;;;8.90;99.90;;;;;;4454355;32;20147;-69
2022/04/07 05:43:26;;;;;;;18.87;10.37;;;8.90;99.90;;;;;;4439771;32;20177;-68
2022/04/07 05:45:53;;;;;;;19.07;10.23;;;8.90;99.90;;;;;;4454275;32;20249;-68
2022/04/07 05:48:20;;;;;;;17.87;10.37;;;9.00;99.90;;;;;;4458575;32;20149;-68
2022/04/07 05:50:47;;;;;;;17.57;10.30;;;9.10;99.90;;;;;;4455753;32;20201;-68
2022/04/07 05:53:14;;;;;;;15.80;9.83;;;9.20;99.90;;;;;;4458305;32;20365;-68
2022/04/07 05:55:41;;;;;;;15.33;9.60;;;9.20;99.90;;;;;;4455402;32;20205;-68
2022/04/07 05:58:09;;;;;;;14.70;9.50;;;9.30;99.90;;;;;;4456561;32;20253;-68
2022/04/07 06:00:37;;;;;;;18.70;10.13;;;9.40;99.90;;;;;;4457974;32;20512;-68
2022/04/07 06:03:04;;;;;;;16.53;9.40;;;9.60;99.90;;;;;;4457974;32;20149;-68
2022/04/07 06:05:31;;;;;;;17.57;9.20;;;9.70;99.90;;;;;;4456795;32;20208;-68
2022/04/07 06:08:00;;;;;;;14.60;8.73;;;9.70;99.90;;;;;;4455402;32;20257;-69
2022/04/07 06:10:27;;;;;;;15.73;8.80;;;9.80;99.90;;;;;;4457388;32;20217;-68
2022/04/07 06:12:55;;;;;;;15.90;8.97;;;9.90;99.90;;;;;;4455376;32;20178;-68
2022/04/07 06:15:23;;;;;;;14.87;8.50;;;10.00;99.90;;;;;;4455598;32;20194;-68
2022/04/07 06:17:50;;;;;;;16.40;8.70;;;10.10;99.90;;;;;;4457358;32;20204;-68
2022/04/07 06:20:17;;;;;;;17.47;9.07;;;10.20;99.90;;;;;;4456503;32;20495;-69
2022/04/07 06:22:45;;;;;;;16.37;7.73;;;10.30;99.90;;;;;;4456369;32;20226;-69
2022/04/07 06:25:12;;;;;;;14.40;8.17;;;10.40;99.90;;;;;;4456767;32;20452;-68
2022/04/07 06:27:41;;;;;;;15.93;8.23;;;10.50;99.90;;;;;;4456281;32;20221;-69
2022/04/07 06:30:11;;;;;;;15.17;8.50;;;10.60;99.90;;;;;;4455270;32;20170;-69
2022/04/07 06:32:38;;;;;;;16.97;8.20;;;10.60;99.90;;;;;;4456835;32;20438;-69
2022/04/07 06:35:07;;;;;;;15.37;8.73;;;10.70;99.90;;;;;;4455245;32;20192;-68
2022/04/07 06:37:52;;;;;;;15.93;8.10;;;10.70;99.90;;;;;;4456139;32;20413;-69
2022/04/07 06:40:20;;;;;;;12.73;7.93;;;10.70;99.90;;;;;;4457410;32;20510;-68
2022/04/07 06:42:53;;;;;;;11.93;7.57;;;10.80;99.90;;;;;;4456592;32;20182;-71
2022/04/07 06:45:27;;;;;;;12.67;7.90;;;10.80;99.90;;;;;;4448570;32;20225;-69
2022/04/07 06:47:55;;;;;;;13.67;8.27;;;10.70;99.90;;;;;;4449162;32;20173;-69
2022/04/07 06:50:26;;;;;;;14.67;7.93;;;10.70;99.90;;;;;;4439705;32;20178;-72
2022/04/07 06:52:55;;;;;;;14.20;8.13;;;10.80;99.90;;;;;;4455146;32;20200;-71
2022/04/07 06:55:23;;;;;;;14.60;7.80;;;10.90;99.90;;;;;;4456006;32;20204;-67
2022/04/07 06:57:57;;;;;;;13.87;7.43;;;11.00;99.90;;;;;;4455750;32;20562;-67
2022/04/07 07:00:33;;;;;;;14.67;7.20;;;11.10;99.90;;;;;;4451449;32;20170;-67
2022/04/07 07:03:02;;;;;;;14.73;7.40;;;11.20;99.90;;;;;;4440791;32;20182;-68
2022/04/07 07:05:31;;;;;;;13.57;6.67;;;11.20;99.90;;;;;;4441260;32;20161;-68
2022/04/07 07:08:10;;;;;;;14.63;7.23;;;11.30;99.90;;;;;;4439264;32;20196;-67
2022/04/07 07:10:37;;;;;;;14.73;6.60;;;11.50;99.90;;;;;;4439517;32;20229;-67
2022/04/07 07:13:04;;;;;;;11.17;7.00;;;11.60;99.90;;;;;;4428317;32;20222;-67
2022/04/07 07:15:31;;;;;;;13.43;7.10;;;11.80;99.90;;;;;;4439821;32;20179;-67
2022/04/07 07:17:58;;;;;;;13.77;7.00;;;12.00;99.90;;;;;;4446044;32;20227;-68
2022/04/07 07:20:25;;;;;;;12.43;6.80;;;12.10;99.90;;;;;;4455544;32;20209;-67
2022/04/07 07:22:51;;;;;;;12.87;6.27;;;12.30;99.90;;;;;;4454773;32;20197;-68
2022/04/07 07:25:18;;;;;;;13.03;6.30;;;12.40;99.90;;;;;;4454608;32;20181;-66
2022/04/07 07:27:47;;;;;;;12.57;5.70;;;12.50;99.90;;;;;;4455220;32;20524;-67
2022/04/07 07:30:16;;;;;;;9.03;4.93;;;12.60;99.90;;;;;;4455881;32;20182;-69
2022/04/07 07:32:45;;;;;;;8.97;4.97;;;12.70;99.90;;;;;;4455583;32;20178;-68
2022/04/07 07:35:13;;;;;;;11.10;5.37;;;12.90;99.90;;;;;;4455525;32;20188;-67
2022/04/07 07:37:49;;;;;;;8.73;5.33;;;13.10;99.90;;;;;;4454836;32;20146;-67
2022/04/07 07:40:16;;;;;;;10.10;5.30;;;13.40;99.90;;;;;;4456284;32;20230;-67
2022/04/07 07:42:43;;;;;;;9.37;4.90;;;13.50;99.90;;;;;;4455483;32;20165;-68
2022/04/07 07:45:11;;;;;;;7.97;4.70;;;13.50;99.90;;;;;;4454463;32;20186;-68
2022/04/07 07:47:53;;;;;;;10.13;4.33;;;13.50;99.90;;;;;;4453778;32;20249;-68
2022/04/07 07:50:20;;;;;;;8.33;4.17;;;13.40;99.90;;;;;;4457261;32;20193;-68
2022/04/07 07:52:48;;;;;;;8.57;4.43;;;13.70;99.90;;;;;;4443963;32;20259;-68
2022/04/07 07:55:15;;;;;;;9.97;4.10;;;13.80;99.90;;;;;;4438488;32;20248;-66
2022/04/07 07:57:42;;;;;;;6.47;3.60;;;13.70;99.90;;;;;;4438797;32;20420;-68
2022/04/07 08:00:10;;;;;;;6.03;3.60;;;13.80;99.90;;;;;;4438073;32;20440;-68
2022/04/07 08:02:38;;;;;;;6.47;3.63;;;13.90;99.90;;;;;;4439942;32;20233;-68
2022/04/07 08:05:06;;;;;;;7.57;3.70;;;13.90;99.90;;;;;;4440207;32;20199;-68
2022/04/07 08:07:41;;;;;;;9.40;4.47;;;14.00;99.90;;;;;;4438870;32;20430;-67
2022/04/07 08:10:09;;;;;;;10.07;4.60;;;14.10;99.90;;;;;;4439049;32;20435;-67
2022/04/07 08:12:38;;;;;;;6.97;4.37;;;14.20;99.90;;;;;;4440316;32;20400;-68
2022/04/07 08:15:05;;;;;;;7.50;4.17;;;14.30;99.90;;;;;;4438834;32;20178;-68
2022/04/07 08:17:33;;;;;;;8.43;4.10;;;14.30;99.90;;;;;;4439182;32;20174;-68
2022/04/07 08:19:59;;;;;;;7.10;3.80;;;14.20;99.90;;;;;;4438014;32;20460;-68
2022/04/07 08:22:27;;;;;;;7.13;3.83;;;14.30;99.90;;;;;;4439063;32;20178;-68
2022/04/07 08:24:56;;;;;;;6.20;3.80;;;14.20;99.90;;;;;;4438755;32;20189;-68
2022/04/07 08:27:26;;;;;;;7.97;4.10;;;14.10;99.90;;;;;;4438408;32;20178;-67
2022/04/07 08:29:53;;;;;;;7.93;4.47;;;14.10;99.90;;;;;;4452826;32;20177;-67
2022/04/07 08:32:20;;;;;;;7.87;4.63;;;14.20;99.90;;;;;;4454004;32;20185;-68
2022/04/07 08:34:47;;;;;;;8.87;4.70;;;14.50;99.90;;;;;;4454166;32;20205;-68
2022/04/07 08:37:14;;;;;;;9.67;4.90;;;14.80;99.90;;;;;;4456334;32;20177;-71
2022/04/07 08:39:41;;;;;;;7.73;4.80;;;15.20;99.90;;;;;;4457536;32;20211;-71
2022/04/07 08:42:08;;;;;;;8.67;4.40;;;15.80;99.90;;;;;;4455643;32;20844;-73
2022/04/07 08:44:35;;;;;;;7.97;4.40;;;16.30;99.90;;;;;;4471518;32;20146;-74
2022/04/07 08:47:02;;;;;;;9.00;4.67;;;16.50;99.90;;;;;;4471522;32;20138;-73
2022/04/07 08:49:31;;;;;;;9.00;4.40;;;16.40;99.90;;;;;;4456895;32;20478;-73
2022/04/07 08:51:58;;;;;;;6.47;4.30;;;16.20;99.90;;;;;;4450760;32;20224;-68
2022/04/07 08:54:26;;;;;;;6.20;4.40;;;16.10;99.90;;;;;;4455751;32;20142;-68
2022/04/07 08:56:52;;;;;;;8.20;4.67;;;15.60;99.90;;;;;;4440108;32;20178;-68
2022/04/07 08:59:19;;;;;;;7.07;4.40;;;15.20;99.90;;;;;;4448168;32;20175;-68
2022/04/07 09:01:46;;;;;;;6.90;4.10;;;15.10;99.90;;;;;;4424902;32;20182;-69
2022/04/07 09:04:14;;;;;;;6.43;4.23;;;15.40;99.90;;;;;;4424919;32;20236;-69
2022/04/07 09:06:42;;;;;;;7.43;4.20;;;15.70;99.90;;;;;;4424749;32;20201;-68
2022/04/07 09:09:14;;;;;;;7.47;4.50;;;15.70;99.90;;;;;;4425133;32;20182;-69
2022/04/07 09:11:41;;;;;;;8.07;4.50;;;15.40;99.90;;;;;;4425640;32;20192;-69
2022/04/07 09:14:12;;;;;;;7.80;4.50;;;15.50;99.90;;;;;;4424825;32;20228;-68
2022/04/07 09:16:40;;;;;;;9.27;4.57;;;15.90;99.90;;;;;;4426036;32;20173;-68
2022/04/07 09:19:08;;;;;;;8.27;4.50;;;16.50;99.90;;;;;;4425789;32;20197;-69
2022/04/07 09:21:36;;;;;;;8.37;4.53;;;16.60;99.90;;;;;;4428072;32;20520;-70
2022/04/07 09:24:07;;;;;;;7.33;4.20;;;16.80;99.90;;;;;;4427628;32;20170;-69
2022/04/07 09:26:36;;;;;;;7.77;4.27;;;17.30;99.90;;;;;;4442378;32;20564;-69
2022/04/07 09:29:11;;;;;;;6.97;4.70;;;17.30;99.90;;;;;;4435152;32;20185;-69
2022/04/07 09:31:39;;;;;;;5.97;3.90;;;17.30;99.90;;;;;;4443151;32;20530;-68
2022/04/07 09:34:07;;;;;;;7.07;4.00;;;17.80;99.90;;;;;;4441253;32;20178;-68
2022/04/07 09:36:34;;;;;;;6.50;4.20;;;18.10;99.80;;;;;;4442379;32;20571;-69
2022/04/07 09:39:02;;;;;;;7.67;3.90;;;18.10;99.20;;;;;;4447629;32;20223;-69
2022/04/07 09:41:31;;;;;;;5.90;3.83;;;18.30;98.30;;;;;;4454113;32;20177;-68
2022/04/07 09:43:59;;;;;;;5.47;3.90;;;18.30;95.90;;;;;;4456054;32;20220;-68
2022/04/07 09:46:34;;;;;;;5.93;3.80;;;18.20;95.80;;;;;;4457710;32;20258;-68
2022/04/07 09:49:09;;;;;;;7.13;3.57;;;17.70;96.80;;;;;;4458296;32;20180;-68
2022/04/07 09:51:50;;;;;;;6.30;3.57;;;17.90;96.70;;;;;;4455276;32;20562;-68
2022/04/07 09:54:18;;;;;;;7.43;3.87;;;18.20;95.20;;;;;;4456830;32;20186;-68
2022/04/07 09:56:47;;;;;;;6.73;4.00;;;18.30;93.80;;;;;;4457611;32;20428;-69
2022/04/07 09:59:19;;;;;;;5.87;3.63;;;18.40;94.20;;;;;;4457755;32;20173;-68
2022/04/07 10:01:49;;;;;;;6.97;3.67;;;18.10;93.20;;;;;;4455729;32;20179;-69
2022/04/07 10:04:19;;;;;;;8.97;4.50;;;17.30;94.90;;;;;;4455295;32;20193;-69
2022/04/07 10:06:47;;;;;;;6.90;3.90;;;16.80;95.90;;;;;;4457724;32;20183;-69
2022/04/07 10:09:17;;;;;;;6.47;4.00;;;16.40;96.90;;;;;;4456053;32;20189;-69
2022/04/07 10:11:44;;;;;;;6.77;3.90;;;16.50;96.20;;;;;;4442134;32;20178;-67
2022/04/07 10:14:14;;;;;;;6.73;3.80;;;16.70;97.30;;;;;;4457196;32;20216;-68
2022/04/07 10:16:44;;;;;;;6.43;3.40;;;16.90;95.90;;;;;;4473354;32;20142;-67
2022/04/07 10:19:19;;;;;;;4.40;3.20;;;16.70;96.60;;;;;;4459114;32;20174;-67
2022/04/07 10:22:01;;;;;;;7.53;3.47;;;16.80;97.40;;;;;;4473341;32;20426;-68
2022/04/07 10:24:37;;;;;;;5.20;3.60;;;16.90;96.00;;;;;;4459512;32;20177;-68
2022/04/07 10:27:29;;;;;;;5.73;3.27;;;17.10;95.80;;;;;;4457892;32;20429;-67
2022/04/07 10:30:04;;;;;;;6.10;3.37;;;17.10;95.70;;;;;;4455045;32;20181;-67
2022/04/07 10:32:36;;;;;;;4.10;3.17;;;16.70;95.60;;;;;;4456572;32;20138;-67
2022/04/07 10:35:03;;;;;;;5.73;3.50;;;16.40;96.20;;;;;;4455464;32;20198;-66
2022/04/07 10:37:43;;;;;;;4.10;3.20;;;15.90;96.90;;;;;;4455805;32;20197;-66
2022/04/07 10:40:45;;;;;;;4.53;3.30;;;15.90;97.90;;;;;;4455319;32;20182;-67
2022/04/07 10:43:22;;;;;;;6.67;3.27;;;15.90;98.00;;;;;;4454784;32;20174;-67
2022/04/07 10:46:12;;;;;;;5.43;3.10;;;16.00;98.20;;;;;;4453411;32;20453;-66
2022/04/07 10:48:50;;;;;;;5.07;3.50;;;16.00;98.90;;;;;;4454962;32;20201;-67
2022/04/07 10:52:10;;;;;;;7.57;3.33;;;16.30;99.10;;;;;;4454368;32;20181;-67
2022/04/07 10:55:11;;;;;;;4.60;3.00;;;16.20;98.60;;;;;;4455897;32;20186;-66
2022/04/07 10:58:15;;;;;;;4.73;3.23;;;16.10;98.20;;;;;;4454834;32;20196;-67
2022/04/07 11:00:59;;;;;;;5.87;3.20;;;16.00;98.90;;;;;;4454942;32;20204;-67
2022/04/07 11:03:26;;;;;;;4.30;3.20;;;16.30;98.60;;;;;;4456060;32;20198;-67
2022/04/07 11:06:03;;;;;;;4.93;3.20;;;16.60;98.60;;;;;;4455271;32;20197;-66
2022/04/07 11:08:30;;;;;;;6.63;3.13;;;16.80;97.40;;;;;;4455473;32;20215;-67
2022/04/07 11:11:00;;;;;;;4.70;2.90;;;17.10;97.80;;;;;;4457167;32;20149;-67
2022/04/07 11:14:04;;;;;;;5.27;3.10;;;17.60;95.70;;;;;;4456404;32;20189;-67
2022/04/07 11:16:36;;;;;;;4.90;2.93;;;18.10;94.30;;;;;;4456120;32;20169;-67
2022/04/07 11:19:20;;;;;;;4.23;3.07;;;18.70;93.30;;;;;;4454609;32;20170;-67
2022/04/07 11:21:50;;;;;;;3.77;2.97;;;19.20;91.30;;;;;;4455998;32;20173;-67
2022/04/07 11:24:24;;;;;;;4.63;2.87;;;19.40;90.20;;;;;;4454227;32;20177;-67
2022/04/07 11:26:54;;;;;;;5.03;3.00;;;19.60;88.20;;;;;;4457567;32;20192;-68
2022/04/07 11:29:34;;;;;;;7.57;3.20;;;19.70;88.10;;;;;;4456007;32;20421;-68
2022/04/07 11:32:09;;;;;;;5.73;3.03;;;20.50;84.20;;;;;;4456113;32;20172;-68
2022/04/07 11:34:36;;;;;;;4.03;2.60;;;20.70;80.60;;;;;;4455897;32;20248;-68
2022/04/07 11:37:07;;;;;;;4.83;3.00;;;20.70;78.10;;;;;;4456090;32;20414;-67
2022/04/07 11:39:37;;;;;;;5.20;2.60;;;21.10;75.80;;;;;;4454953;32;20551;-67
2022/04/07 11:42:07;;;;;;;4.10;2.40;;;20.50;76.00;;;;;;4454189;32;20212;-67
2022/04/07 11:44:34;;;;;;;2.87;2.00;;;20.10;78.10;;;;;;4447813;32;20167;-68
2022/04/07 11:47:02;;;;;;;4.53;2.40;;;20.60;76.80;;;;;;4452444;32;20438;-68
2022/04/07 11:49:30;;;;;;;3.00;2.50;;;21.20;73.30;;;;;;4453637;32;20228;-68
2022/04/07 11:51:56;;;;;;;4.73;2.67;;;21.60;72.10;;;;;;4443078;32;20551;-68
2022/04/07 11:54:24;;;;;;;4.97;2.70;;;22.00;69.80;;;;;;4456575;32;20442;-67
2022/04/07 11:56:51;;;;;;;5.47;3.03;;;21.60;70.30;;;;;;4455621;32;20353;-67
2022/04/07 11:59:20;;;;;;;3.83;2.60;;;20.80;71.80;;;;;;4454886;32;20455;-67
2022/04/07 12:01:47;;;;;;;4.30;2.50;;;20.50;73.10;;;;;;4456984;32;20185;-67
2022/04/07 12:04:14;;;;;;;4.40;2.10;;;20.80;72.60;;;;;;4454346;32;20215;-66
2022/04/07 12:06:45;;;;;;;3.30;1.80;;;21.00;72.10;;;;;;4453941;32;20179;-67
2022/04/07 12:09:14;;;;;;;3.40;1.60;;;21.80;69.00;;;;;;4454954;32;20193;-68
2022/04/07 12:11:43;;;;;;;1.97;1.70;;;21.30;65.70;;;;;;4436047;32;20253;-69
2022/04/07 12:14:11;;;;;;;2.73;1.60;;;20.60;68.10;;;;;;4439459;32;20212;-68
2022/04/07 12:16:45;;;;;;;4.70;1.67;;;20.20;71.20;;;;;;4440969;32;20589;-68
2022/04/07 12:19:14;;;;;;;2.43;1.80;;;19.90;72.20;;;;;;4439409;32;20151;-67
2022/04/07 12:21:58;;;;;;;2.83;1.70;;;19.60;71.60;;;;;;4439603;32;20246;-68
2022/04/07 12:24:26;;;;;;;2.13;1.60;;;19.40;73.30;;;;;;4438707;32;20455;-67
2022/04/07 12:26:55;;;;;;;2.17;1.43;;;19.20;75.30;;;;;;4440009;32;20151;-68
2022/04/07 12:29:31;;;;;;;2.37;1.03;;;19.30;75.30;;;;;;4438262;32;20239;-68
2022/04/07 12:31:59;;;;;;;2.53;1.20;;;18.70;73.30;;;;;;4438540;32;20188;-68
2022/04/07 12:34:26;;;;;;;1.97;1.10;;;18.30;74.80;;;;;;4438156;32;20229;-69
2022/04/07 12:36:53;;;;;;;2.00;1.30;;;18.40;76.90;;;;;;4438543;32;20189;-68
2022/04/07 12:39:31;;;;;;;2.90;1.07;;;18.20;77.30;;;;;;4426205;32;20234;-67
2022/04/07 12:42:05;;;;;;;1.70;1.20;;;18.90;76.60;;;;;;4439352;32;20212;-67
2022/04/07 12:44:35;;;;;;;2.97;1.23;;;18.80;75.40;;;;;;4437735;32;20516;-68
2022/04/07 12:47:14;;;;;;;1.40;1.10;;;18.40;76.30;;;;;;4452790;32;20177;-68
2022/04/07 12:49:54;;;;;;;2.53;1.30;;;18.30;77.60;;;;;;4454616;32;20630;-68
2022/04/07 12:52:43;;;;;;;4.27;1.50;;;17.90;79.40;;;;;;4454291;32;20168;-68
2022/04/07 12:55:15;;;;;;;1.63;1.20;;;17.80;80.00;;;;;;4452752;32;20186;-66